Mustafa Sofuoglu — TCOJ7 — position and weather

sailwx.info

Track history (hours):
 
Tides and Currents Weather Stations Pressure Air Temp Water Temp Dewpoint Dewpoint Depression Visibility Wind Speed Wind Dir Waves Ship Positions

Mustafa Sofuoglu

Last reported at 2016-Dec-27 00:33 UTC. Time now 2017-Jan-23 06:37 UTC.
Position N 40°45' E 029°03'.
Warning: this ship's position is 27 days out of date.

Length 106 m; draft 5.3 m.

Type: Cargo ship. MMSI: 271000831.

Date/timePositionNaut miles runAvg speedWind from/ knotsBaromVisibWave heightAir tempDewpointWater temp
2016-Dec-27 00:33N 40°45' E 029°03'1313.2
2016-Dec-26 23:33N 40°44' E 029°20'1210.7
2016-Dec-26 22:29N 40°46' E 029°35'  
2016-Dec-24 13:16N 40°45' E 029°32'811.3
2016-Dec-24 12:33N 40°44' E 029°21'1111.2
2016-Dec-24 11:33N 40°48' E 029°08'1211.7
2016-Dec-24 10:32N 40°56' E 028°57'2 0.4
2016-Dec-24 06:05N 40°58' E 028°57'  
2016-Dec-22 01:14N 44°29' E 037°33'913.2
2016-Dec-22 00:33N 44°33' E 037°44'9 9.1
2016-Dec-21 23:32N 44°39' E 037°54'0 0.0
2016-Dec-21 22:32N 44°39' E 037°54'0 0.0
2016-Dec-21 21:32N 44°39' E 037°54'0 0.0
2016-Dec-21 20:32N 44°39' E 037°54'0 0.0
2016-Dec-21 19:32N 44°39' E 037°54'0 0.0
2016-Dec-21 18:29N 44°39' E 037°54'0 0.0
2016-Dec-21 17:32N 44°39' E 037°54'0 0.0
2016-Dec-21 16:32N 44°39' E 037°54'0 0.0
2016-Dec-21 15:32N 44°39' E 037°54'0 0.0
2016-Dec-21 14:26N 44°39' E 037°54'0 0.0
2016-Dec-21 13:32N 44°39' E 037°54'0 0.0
2016-Dec-21 12:32N 44°39' E 037°54'0 0.0
2016-Dec-21 11:32N 44°39' E 037°54'0 0.0
2016-Dec-21 10:32N 44°39' E 037°54'0 0.1
2016-Dec-21 09:32N 44°39' E 037°54'0 0.0
2016-Dec-21 08:32N 44°39' E 037°54'0 0.0
2016-Dec-21 07:32N 44°39' E 037°54'0 0.0
2016-Dec-21 06:32N 44°39' E 037°54'0 0.2
2016-Dec-21 05:33N 44°39' E 037°54'0 0.3
2016-Dec-21 04:28N 44°39' E 037°53'0 0.0
2016-Dec-21 03:31N 44°39' E 037°53'0 0.0
2016-Dec-21 02:31N 44°39' E 037°53'0 0.0
2016-Dec-21 01:31N 44°39' E 037°53'0 0.0
2016-Dec-21 00:31N 44°39' E 037°53'0 0.0
2016-Dec-20 23:31N 44°39' E 037°53'0 0.0
2016-Dec-20 22:31N 44°39' E 037°53'0 0.0
2016-Dec-20 21:25N 44°39' E 037°53'0 0.0
2016-Dec-20 20:31N 44°39' E 037°53'0 0.0
2016-Dec-20 19:31N 44°39' E 037°53'0 0.0
2016-Dec-20 18:31N 44°39' E 037°53'0 0.0
2016-Dec-20 17:31N 44°39' E 037°53'0 0.0
2016-Dec-20 16:25N 44°39' E 037°53'0 0.0
2016-Dec-20 15:31N 44°39' E 037°53'0 0.1
2016-Dec-20 14:34N 44°39' E 037°54'0 0.0
2016-Dec-20 13:33N 44°39' E 037°54'0 0.1
2016-Dec-20 12:33N 44°39' E 037°54'0 0.1
2016-Dec-20 11:33N 44°39' E 037°54'0 0.1
2016-Dec-20 10:30N 44°39' E 037°54'0 0.0
2016-Dec-20 09:33N 44°39' E 037°54'0 0.0
2016-Dec-20 08:33N 44°39' E 037°54'0 0.0
2016-Dec-20 07:32N 44°39' E 037°54'0 0.0
2016-Dec-20 06:33N 44°39' E 037°54'0 0.0
2016-Dec-20 05:32N 44°39' E 037°54'0 0.0
2016-Dec-20 04:33N 44°39' E 037°54'0 0.0
2016-Dec-20 03:33N 44°39' E 037°54'0 0.0
2016-Dec-20 02:33N 44°39' E 037°54'0 0.0
2016-Dec-20 01:33N 44°39' E 037°54'0 0.0
2016-Dec-20 00:33N 44°39' E 037°54'0 0.0
2016-Dec-19 23:33N 44°39' E 037°54'0 0.3
2016-Dec-19 22:34N 44°39' E 037°53'7 6.5
2016-Dec-19 21:33N 44°43' E 037°47'0 0.1
2016-Dec-19 20:33N 44°44' E 037°47'0 0.0
2016-Dec-19 19:33N 44°44' E 037°47'0 0.0
2016-Dec-19 18:33N 44°44' E 037°47'0 0.0
2016-Dec-19 17:30N 44°44' E 037°47'0 0.0
2016-Dec-19 16:30N 44°44' E 037°47'0 0.0
2016-Dec-19 15:33N 44°44' E 037°47'0 0.0
2016-Dec-19 14:33N 44°44' E 037°47'0 0.0
2016-Dec-19 13:33N 44°44' E 037°47'0 0.0
2016-Dec-19 12:33N 44°44' E 037°47'0 0.0
2016-Dec-19 11:33N 44°44' E 037°47'0 0.0
2016-Dec-19 10:33N 44°44' E 037°47'0 0.0
2016-Dec-19 09:33N 44°44' E 037°47'0 0.0
2016-Dec-19 08:30N 44°44' E 037°47'0 0.0
2016-Dec-19 07:33N 44°44' E 037°47'0 0.0
2016-Dec-19 06:33N 44°44' E 037°47'0 0.0
2016-Dec-19 05:33N 44°44' E 037°47'0 0.0
2016-Dec-19 04:33N 44°44' E 037°47'0 0.0
2016-Dec-19 03:33N 44°44' E 037°47'0 0.0
2016-Dec-19 02:33N 44°44' E 037°47'0 0.0
2016-Dec-19 01:33N 44°44' E 037°47'0 0.0
2016-Dec-19 00:33N 44°44' E 037°47'0 0.0
2016-Dec-18 23:33N 44°44' E 037°47'0 0.0
2016-Dec-18 22:33N 44°44' E 037°47'0 0.0
2016-Dec-18 21:33N 44°44' E 037°47'0 0.0
2016-Dec-18 20:33N 44°44' E 037°47'0 0.0
2016-Dec-18 19:33N 44°44' E 037°47'0 0.0
2016-Dec-18 18:33N 44°44' E 037°47'0 0.0
2016-Dec-18 17:33N 44°44' E 037°47'0 0.0
2016-Dec-18 16:33N 44°44' E 037°47'0 0.0
2016-Dec-18 15:33N 44°44' E 037°47'0 0.0
2016-Dec-18 14:33N 44°44' E 037°47'0 0.0
2016-Dec-18 13:30N 44°44' E 037°47'0 0.0
2016-Dec-18 12:33N 44°44' E 037°47'0 0.0
2016-Dec-18 11:33N 44°44' E 037°47'0 0.0
2016-Dec-18 10:33N 44°44' E 037°47'0 0.0
2016-Dec-18 09:33N 44°44' E 037°47'0 0.0
2016-Dec-18 08:33N 44°44' E 037°47'0 0.0
2016-Dec-18 07:33N 44°44' E 037°47'0 0.0
2016-Dec-18 06:33N 44°44' E 037°47'0 0.0
2016-Dec-18 05:33N 44°44' E 037°47'0 0.0
2016-Dec-18 04:33N 44°44' E 037°47'0 0.0
2016-Dec-18 03:33N 44°44' E 037°47'0 0.0
2016-Dec-18 02:33N 44°44' E 037°47'0 0.0
2016-Dec-18 01:33N 44°44' E 037°47'0 0.0
2016-Dec-18 00:33N 44°44' E 037°47'0 0.0
2016-Dec-17 23:33N 44°44' E 037°47'0 0.0
2016-Dec-17 22:33N 44°44' E 037°47'0 0.0
2016-Dec-17 21:33N 44°44' E 037°47'0 0.0
2016-Dec-17 20:33N 44°44' E 037°47'0 0.0
2016-Dec-17 19:33N 44°44' E 037°47'0 0.0
2016-Dec-17 18:33N 44°44' E 037°47'0 0.0
2016-Dec-17 17:33N 44°44' E 037°47'0 0.0
2016-Dec-17 16:33N 44°44' E 037°47'0 0.0
2016-Dec-17 15:33N 44°44' E 037°47'0 0.0
2016-Dec-17 14:33N 44°44' E 037°47'0 0.0
2016-Dec-17 13:33N 44°44' E 037°47'0 0.0
2016-Dec-17 12:33N 44°44' E 037°47'0 0.0
2016-Dec-17 11:33N 44°44' E 037°47'0 0.0
2016-Dec-17 10:33N 44°44' E 037°47'0 0.0
2016-Dec-17 09:33N 44°44' E 037°47'0 0.0
2016-Dec-17 08:33N 44°44' E 037°47'0 0.0
2016-Dec-17 07:33N 44°44' E 037°47'0 0.0
2016-Dec-17 06:33N 44°44' E 037°47'0 0.0
2016-Dec-17 05:33N 44°44' E 037°47'0 0.0
2016-Dec-17 04:33N 44°44' E 037°47'0 0.0
2016-Dec-17 03:33N 44°44' E 037°47'0 0.0
2016-Dec-17 02:33N 44°44' E 037°47'0 0.0
2016-Dec-17 01:33N 44°44' E 037°47'0 0.0
2016-Dec-17 00:33N 44°44' E 037°47'  
Track history (hours):
 
Tides and Currents Weather Stations Pressure Air Temp Water Temp Dewpoint Dewpoint Depression Visibility Wind Speed Wind Dir Waves Ship Positions

Mustafa Sofuoglu

Last reported at 2016-Dec-27 00:33 UTC. Time now 2017-Jan-23 06:37 UTC.
Position N 40°45' E 029°03'.
Warning: this ship's position is 27 days out of date.

Length 106 m; draft 5.3 m.

Type: Cargo ship. MMSI: 271000831.

Date/timePositionNaut miles runAvg speedWind from/ knotsBaromVisibWave heightAir tempDewpointWater temp
2016-Dec-27 00:33N 40°45' E 029°03'1313.2
2016-Dec-26 23:33N 40°44' E 029°20'1210.7
2016-Dec-26 22:29N 40°46' E 029°35'  
2016-Dec-24 13:16N 40°45' E 029°32'811.3
2016-Dec-24 12:33N 40°44' E 029°21'1111.2
2016-Dec-24 11:33N 40°48' E 029°08'1211.7
2016-Dec-24 10:32N 40°56' E 028°57'2 0.4
2016-Dec-24 06:05N 40°58' E 028°57'  
2016-Dec-22 01:14N 44°29' E 037°33'913.2
2016-Dec-22 00:33N 44°33' E 037°44'9 9.1
2016-Dec-21 23:32N 44°39' E 037°54'0 0.0
2016-Dec-21 22:32N 44°39' E 037°54'0 0.0
2016-Dec-21 21:32N 44°39' E 037°54'0 0.0
2016-Dec-21 20:32N 44°39' E 037°54'0 0.0
2016-Dec-21 19:32N 44°39' E 037°54'0 0.0
2016-Dec-21 18:29N 44°39' E 037°54'0 0.0
2016-Dec-21 17:32N 44°39' E 037°54'0 0.0
2016-Dec-21 16:32N 44°39' E 037°54'0 0.0
2016-Dec-21 15:32N 44°39' E 037°54'0 0.0
2016-Dec-21 14:26N 44°39' E 037°54'0 0.0
2016-Dec-21 13:32N 44°39' E 037°54'0 0.0
2016-Dec-21 12:32N 44°39' E 037°54'0 0.0
2016-Dec-21 11:32N 44°39' E 037°54'0 0.0
2016-Dec-21 10:32N 44°39' E 037°54'0 0.1
2016-Dec-21 09:32N 44°39' E 037°54'0 0.0
2016-Dec-21 08:32N 44°39' E 037°54'0 0.0
2016-Dec-21 07:32N 44°39' E 037°54'0 0.0
2016-Dec-21 06:32N 44°39' E 037°54'0 0.2
2016-Dec-21 05:33N 44°39' E 037°54'0 0.3
2016-Dec-21 04:28N 44°39' E 037°53'0 0.0
2016-Dec-21 03:31N 44°39' E 037°53'0 0.0
2016-Dec-21 02:31N 44°39' E 037°53'0 0.0
2016-Dec-21 01:31N 44°39' E 037°53'0 0.0
2016-Dec-21 00:31N 44°39' E 037°53'0 0.0
2016-Dec-20 23:31N 44°39' E 037°53'0 0.0
2016-Dec-20 22:31N 44°39' E 037°53'0 0.0
2016-Dec-20 21:25N 44°39' E 037°53'0 0.0
2016-Dec-20 20:31N 44°39' E 037°53'0 0.0
2016-Dec-20 19:31N 44°39' E 037°53'0 0.0
2016-Dec-20 18:31N 44°39' E 037°53'0 0.0
2016-Dec-20 17:31N 44°39' E 037°53'0 0.0
2016-Dec-20 16:25N 44°39' E 037°53'0 0.0
2016-Dec-20 15:31N 44°39' E 037°53'0 0.1
2016-Dec-20 14:34N 44°39' E 037°54'0 0.0
2016-Dec-20 13:33N 44°39' E 037°54'0 0.1
2016-Dec-20 12:33N 44°39' E 037°54'0 0.1
2016-Dec-20 11:33N 44°39' E 037°54'0 0.1
2016-Dec-20 10:30N 44°39' E 037°54'0 0.0
2016-Dec-20 09:33N 44°39' E 037°54'0 0.0
2016-Dec-20 08:33N 44°39' E 037°54'0 0.0
2016-Dec-20 07:32N 44°39' E 037°54'0 0.0
2016-Dec-20 06:33N 44°39' E 037°54'0 0.0
2016-Dec-20 05:32N 44°39' E 037°54'0 0.0
2016-Dec-20 04:33N 44°39' E 037°54'0 0.0
2016-Dec-20 03:33N 44°39' E 037°54'0 0.0
2016-Dec-20 02:33N 44°39' E 037°54'0 0.0
2016-Dec-20 01:33N 44°39' E 037°54'0 0.0
2016-Dec-20 00:33N 44°39' E 037°54'0 0.0
2016-Dec-19 23:33N 44°39' E 037°54'0 0.3
2016-Dec-19 22:34N 44°39' E 037°53'7 6.5
2016-Dec-19 21:33N 44°43' E 037°47'0 0.1
2016-Dec-19 20:33N 44°44' E 037°47'0 0.0
2016-Dec-19 19:33N 44°44' E 037°47'0 0.0
2016-Dec-19 18:33N 44°44' E 037°47'0 0.0
2016-Dec-19 17:30N 44°44' E 037°47'0 0.0
2016-Dec-19 16:30N 44°44' E 037°47'0 0.0
2016-Dec-19 15:33N 44°44' E 037°47'0 0.0
2016-Dec-19 14:33N 44°44' E 037°47'0 0.0
2016-Dec-19 13:33N 44°44' E 037°47'0 0.0
2016-Dec-19 12:33N 44°44' E 037°47'0 0.0
2016-Dec-19 11:33N 44°44' E 037°47'0 0.0
2016-Dec-19 10:33N 44°44' E 037°47'0 0.0
2016-Dec-19 09:33N 44°44' E 037°47'0 0.0
2016-Dec-19 08:30N 44°44' E 037°47'0 0.0
2016-Dec-19 07:33N 44°44' E 037°47'0 0.0
2016-Dec-19 06:33N 44°44' E 037°47'0 0.0
2016-Dec-19 05:33N 44°44' E 037°47'0 0.0
2016-Dec-19 04:33N 44°44' E 037°47'0 0.0
2016-Dec-19 03:33N 44°44' E 037°47'0 0.0
2016-Dec-19 02:33N 44°44' E 037°47'0 0.0
2016-Dec-19 01:33N 44°44' E 037°47'0 0.0
2016-Dec-19 00:33N 44°44' E 037°47'0 0.0
2016-Dec-18 23:33N 44°44' E 037°47'0 0.0
2016-Dec-18 22:33N 44°44' E 037°47'0 0.0
2016-Dec-18 21:33N 44°44' E 037°47'0 0.0
2016-Dec-18 20:33N 44°44' E 037°47'0 0.0
2016-Dec-18 19:33N 44°44' E 037°47'0 0.0
2016-Dec-18 18:33N 44°44' E 037°47'0 0.0
2016-Dec-18 17:33N 44°44' E 037°47'0 0.0
2016-Dec-18 16:33N 44°44' E 037°47'0 0.0
2016-Dec-18 15:33N 44°44' E 037°47'0 0.0
2016-Dec-18 14:33N 44°44' E 037°47'0 0.0
2016-Dec-18 13:30N 44°44' E 037°47'0 0.0
2016-Dec-18 12:33N 44°44' E 037°47'0 0.0
2016-Dec-18 11:33N 44°44' E 037°47'0 0.0
2016-Dec-18 10:33N 44°44' E 037°47'0 0.0
2016-Dec-18 09:33N 44°44' E 037°47'0 0.0
2016-Dec-18 08:33N 44°44' E 037°47'0 0.0
2016-Dec-18 07:33N 44°44' E 037°47'0 0.0
2016-Dec-18 06:33N 44°44' E 037°47'0 0.0
2016-Dec-18 05:33N 44°44' E 037°47'0 0.0
2016-Dec-18 04:33N 44°44' E 037°47'0 0.0
2016-Dec-18 03:33N 44°44' E 037°47'0 0.0
2016-Dec-18 02:33N 44°44' E 037°47'0 0.0
2016-Dec-18 01:33N 44°44' E 037°47'0 0.0
2016-Dec-18 00:33N 44°44' E 037°47'0 0.0
2016-Dec-17 23:33N 44°44' E 037°47'0 0.0
2016-Dec-17 22:33N 44°44' E 037°47'0 0.0
2016-Dec-17 21:33N 44°44' E 037°47'0 0.0
2016-Dec-17 20:33N 44°44' E 037°47'0 0.0
2016-Dec-17 19:33N 44°44' E 037°47'0 0.0
2016-Dec-17 18:33N 44°44' E 037°47'0 0.0
2016-Dec-17 17:33N 44°44' E 037°47'0 0.0
2016-Dec-17 16:33N 44°44' E 037°47'0 0.0
2016-Dec-17 15:33N 44°44' E 037°47'0 0.0
2016-Dec-17 14:33N 44°44' E 037°47'0 0.0
2016-Dec-17 13:33N 44°44' E 037°47'0 0.0
2016-Dec-17 12:33N 44°44' E 037°47'0 0.0
2016-Dec-17 11:33N 44°44' E 037°47'0 0.0
2016-Dec-17 10:33N 44°44' E 037°47'0 0.0
2016-Dec-17 09:33N 44°44' E 037°47'0 0.0
2016-Dec-17 08:33N 44°44' E 037°47'0 0.0
2016-Dec-17 07:33N 44°44' E 037°47'0 0.0
2016-Dec-17 06:33N 44°44' E 037°47'0 0.0
2016-Dec-17 05:33N 44°44' E 037°47'0 0.0
2016-Dec-17 04:33N 44°44' E 037°47'0 0.0
2016-Dec-17 03:33N 44°44' E 037°47'0 0.0
2016-Dec-17 02:33N 44°44' E 037°47'0 0.0
2016-Dec-17 01:33N 44°44' E 037°47'0 0.0
2016-Dec-17 00:33N 44°44' E 037°47'  

Dump ship's entire track history